クアラルンプール の空港の天気 - METARとTAF

クアラルンプール国際空港 ( WMKK / KUL ) - マレーシア スランゴール州セパン
飛行場実況気象(Metar)
観測時間06/03 20:30 MYT (06/03 12:30 UTC)
風向・風速不定 1m/s
視程10km以上
天気現象
少しの雲 雲底高度 910m
気温29℃
湿度84%
気圧1008hPa
METARWMKK 031230Z VRB02KT 9999 FEW030 29/26 Q1008 NOSIG
過去の天気等 Google飛行場航空写真 Wunderground天気予報

過去48時間のMETAR

飛行場予報(TAF)
発表時間: 6/03 19:00 MYT (6/03 11:00 UTC)
予報対象時間: 3日20時 MYT ~ 5日2時 MYT
風向・風速南南東 3m/s
視程10km以上
少しの積乱雲 雲底高度 520m
4日6時 MYT ~ 4日10時 MYT に 確率 30% で一時的に
風向・風速不定 1m/s
視程4000m
天気現象雷雨
少しの雲 雲底高度 300m
少しの積乱雲 雲底高度 520m
全天の4割程度の雲 雲底高度 550m
TAF WMKK 031100Z 0312/0418 15005KT 9999 FEW017CB
PROB30 TEMPO 0322/0402 VRB01KT 4000 TSRA FEW010 FEW017CB SCT018